This is the latest recevied weather packets stored in our database for station/object K7YVO. If no packets are shown the sender has not sent any weather packets the latest 10 day(s).
| Time | Temp. | Humidity | Pressure | Rain* | Wind** | Luminosity | Snow |
|---|---|---|---|---|---|---|---|
| 1777896483 | 13.89° C | 78% | 1012.8 hPa | 0 mm | - | 0 W/m² | - |
| 1777895878 | 14.44° C | 77% | 1012.7 hPa | 0 mm | - | 0 W/m² | - |
| 1777894667 | 15° C | 75% | 1012.7 hPa | 0 mm | - | 0 W/m² | - |
| 1777894364 | 15° C | 74% | 1012.7 hPa | 0 mm | - | 0 W/m² | - |
| 1777894062 | 15° C | 74% | 1012.7 hPa | 0 mm | - | 0 W/m² | - |
| 1777893757 | 15° C | 73% | 1012.5 hPa | 0 mm | - | 0 W/m² | - |
| 1777893455 | 15° C | 73% | 1012.5 hPa | 0 mm | - | 0 W/m² | - |
| 1777893151 | 15.56° C | 73% | 1012.3 hPa | 0 mm | - | 0 W/m² | - |
| 1777892848 | 15.56° C | 73% | 1012.4 hPa | 0 mm | - | 0 W/m² | - |
| 1777892544 | 15.56° C | 73% | 1012.5 hPa | 0 mm | - | 0 W/m² | - |
| 1777891025 | 16.11° C | 70% | 1012.1 hPa | 0 mm | - | 0 W/m² | - |
| 1777890719 | 16.11° C | 71% | 1012.3 hPa | 0 mm | - | 0 W/m² | - |
| 1777889809 | 16.67° C | 67% | 1012 hPa | 0 mm | - | 0 W/m² | - |
| 1777889506 | 16.67° C | 67% | 1011.9 hPa | 0 mm | - | 0 W/m² | - |
| 1777889204 | 16.67° C | 66% | 1011.9 hPa | 0 mm | - | 0 W/m² | - |
| 1777888902 | 16.67° C | 66% | 1011.6 hPa | 0 mm | - | 0 W/m² | - |
| 1777888598 | 16.67° C | 66% | 1011.8 hPa | 0 mm | - | 0 W/m² | - |
| 1777888294 | 16.67° C | 66% | 1011.8 hPa | 0 mm | - | 0 W/m² | - |
| 1777887688 | 16.67° C | 65% | 1011.7 hPa | 0 mm | - | 0 W/m² | - |
| 1777887385 | 17.22° C | 65% | 1011.4 hPa | 0 mm | - | 0 W/m² | - |
| 1777887080 | 17.22° C | 64% | 1011.6 hPa | 0 mm | - | 0 W/m² | - |
| 1777886776 | 17.22° C | 62% | 1011.6 hPa | 0 mm | - | 0 W/m² | - |
| 1777886472 | 17.22° C | 63% | 1011.6 hPa | 0 mm | - | 0 W/m² | - |
| 1777886171 | 16.67° C | 64% | 1011.5 hPa | 0 mm | - | 0 W/m² | - |
| 1777885868 | 16.67° C | 65% | 1011.5 hPa | 0 mm | - | 0 W/m² | - |
* Rain latest hour (hover to see other rain measurements)
** Current wind speed in m/s (hover to see current wind gust speed)